createdAt,value
2019-05-06T00:02:43.473Z,3.03
2019-05-06T00:05:51.551Z,2.10
2019-05-06T00:08:59.556Z,2.90
2019-05-06T00:12:07.508Z,3.07
2019-05-06T00:15:15.569Z,5.60
2019-05-06T00:18:24.509Z,3.40
2019-05-06T00:21:35.561Z,2.40
2019-05-06T00:24:54.670Z,3.53
2019-05-06T00:28:26.595Z,3.17
2019-05-06T00:31:35.377Z,3.77
2019-05-06T00:34:43.724Z,5.90
2019-05-06T00:37:53.579Z,4.90
2019-05-06T00:41:04.622Z,3.87
2019-05-06T00:44:14.296Z,5.60
2019-05-06T00:47:21.936Z,4.03
2019-05-06T00:50:29.910Z,7.07
2019-05-06T00:53:39.248Z,10.00
2019-05-06T00:56:47.468Z,6.43
2019-05-06T01:03:04.303Z,5.40
2019-05-06T01:06:14.190Z,3.93
2019-05-06T01:12:31.446Z,7.20
2019-05-06T01:18:46.580Z,3.67
2019-05-06T01:21:54.399Z,3.80
2019-05-06T01:28:09.362Z,7.17
2019-05-06T01:31:17.587Z,7.87
2019-05-06T01:34:25.541Z,2.00
2019-05-06T01:37:34.752Z,2.60
2019-05-06T01:40:54.606Z,6.57
2019-05-06T01:44:04.255Z,2.47
2019-05-06T01:47:14.391Z,4.60
2019-05-06T01:50:23.541Z,4.17
2019-05-06T01:53:33.762Z,3.87
2019-05-06T01:56:41.604Z,5.67
2019-05-06T01:59:50.013Z,8.80
2019-05-06T02:02:58.249Z,6.13
2019-05-06T02:06:06.559Z,3.63
2019-05-06T02:09:17.970Z,6.20
2019-05-06T02:12:26.276Z,7.23
2019-05-06T02:15:35.573Z,3.10
2019-05-06T02:18:44.809Z,5.33
2019-05-06T02:22:14.460Z,6.07
2019-05-06T02:25:30.241Z,4.47
2019-05-06T02:28:40.372Z,4.20
2019-05-06T02:35:26.378Z,5.27
2019-05-06T02:41:43.567Z,2.93
2019-05-06T02:44:54.027Z,4.10
2019-05-06T02:48:26.247Z,7.13
2019-05-06T02:51:35.040Z,6.83
2019-05-06T02:54:43.043Z,3.57
2019-05-06T02:57:53.684Z,3.73
2019-05-06T03:01:03.628Z,2.90
2019-05-06T03:04:13.249Z,6.90
2019-05-06T03:07:23.321Z,4.73
2019-05-06T03:10:32.873Z,4.23
2019-05-06T03:13:43.756Z,5.83
2019-05-06T03:16:53.766Z,7.80
2019-05-06T03:20:04.192Z,4.87
2019-05-06T03:23:14.252Z,8.00
2019-05-06T03:26:23.545Z,4.40
2019-05-06T03:29:33.402Z,7.70
2019-05-06T03:33:20.250Z,4.67
2019-05-06T03:36:06.439Z,5.53
2019-05-06T03:39:03.152Z,5.13
2019-05-06T03:42:16.044Z,5.43
2019-05-06T03:45:42.878Z,5.80
2019-05-06T03:48:53.096Z,7.13
2019-05-06T03:52:02.755Z,5.50
2019-05-06T03:55:13.843Z,10.67
2019-05-06T03:58:26.307Z,7.90
2019-05-06T04:01:33.375Z,4.27
2019-05-06T04:04:43.795Z,4.10
2019-05-06T04:07:53.082Z,8.73
2019-05-06T04:11:02.941Z,5.63
2019-05-06T04:14:13.697Z,7.97
2019-05-06T04:17:33.545Z,4.90
2019-05-06T04:20:48.251Z,8.17
2019-05-06T04:24:05.269Z,4.63
2019-05-06T04:27:42.777Z,6.43
2019-05-06T04:30:50.284Z,6.07
2019-05-06T04:34:10.063Z,5.37
2019-05-06T04:37:09.376Z,8.57
2019-05-06T04:40:18.836Z,11.37
2019-05-06T04:43:27.292Z,7.43
2019-05-06T04:46:36.450Z,6.63
2019-05-06T04:53:05.893Z,8.07
2019-05-06T04:56:14.690Z,15.57
2019-05-06T04:59:23.235Z,12.50
2019-05-06T05:02:33.654Z,5.80
2019-05-06T05:05:44.930Z,8.70
2019-05-06T05:08:53.210Z,10.00
2019-05-06T05:12:07.516Z,12.17
2019-05-06T05:15:25.717Z,6.83
2019-05-06T05:18:42.494Z,11.17
2019-05-06T05:21:52.242Z,14.57
2019-05-06T05:25:03.258Z,12.10
2019-05-06T05:28:10.239Z,15.97
2019-05-06T05:31:18.550Z,7.67
2019-05-06T05:34:37.198Z,23.80
2019-05-06T05:37:37.558Z,14.57
2019-05-06T05:40:45.548Z,10.60
2019-05-06T05:44:32.412Z,20.60
2019-05-06T05:51:06.096Z,12.63
2019-05-06T05:54:14.249Z,12.90
2019-05-06T05:57:22.650Z,9.00
2019-05-06T06:00:32.514Z,14.57
2019-05-06T06:03:42.199Z,12.70
2019-05-06T06:06:52.001Z,8.57
2019-05-06T06:10:18.084Z,16.17
2019-05-06T06:13:26.097Z,5.00
2019-05-06T06:16:45.239Z,17.97
2019-05-06T06:19:59.089Z,6.53
2019-05-06T06:23:16.280Z,10.50
2019-05-06T06:26:24.531Z,10.30
2019-05-06T06:29:32.498Z,11.70
2019-05-06T06:32:41.932Z,16.70
2019-05-06T06:36:02.842Z,8.83
2019-05-06T06:39:16.251Z,14.57
2019-05-06T06:42:24.361Z,9.43
2019-05-06T06:45:32.683Z,7.60
2019-05-06T06:48:43.062Z,11.40
2019-05-06T06:51:53.228Z,11.40
2019-05-06T06:55:02.384Z,14.97
2019-05-06T06:58:26.218Z,12.37
2019-05-06T07:01:44.223Z,11.67
2019-05-06T07:05:24.787Z,16.80
2019-05-06T07:08:33.993Z,17.03
2019-05-06T07:11:34.279Z,11.50
2019-05-06T07:14:42.909Z,11.03
2019-05-06T07:17:52.503Z,7.00
2019-05-06T07:21:06.599Z,12.47
2019-05-06T07:24:15.425Z,6.63
2019-05-06T07:27:25.684Z,10.00
2019-05-06T07:30:34.580Z,11.97
2019-05-06T07:33:43.030Z,11.37
2019-05-06T07:36:52.481Z,9.33
2019-05-06T07:40:03.041Z,9.77
2019-05-06T07:43:29.585Z,4.97
2019-05-06T07:46:44.643Z,9.83
2019-05-06T07:49:53.240Z,10.17
2019-05-06T07:53:07.549Z,6.33
2019-05-06T07:56:15.618Z,10.70
2019-05-06T07:59:23.577Z,7.47
2019-05-06T08:02:32.090Z,11.53
2019-05-06T08:05:55.228Z,8.73
2019-05-06T08:08:53.634Z,11.73
2019-05-06T08:12:02.796Z,7.47
2019-05-06T08:15:12.660Z,5.63
2019-05-06T08:18:22.572Z,8.53
2019-05-06T08:21:32.686Z,8.30
2019-05-06T08:24:42.255Z,8.23
2019-05-06T08:30:58.223Z,6.00
2019-05-06T08:34:06.404Z,7.83
2019-05-06T08:40:36.358Z,3.97
2019-05-06T08:43:44.415Z,9.60
2019-05-06T08:50:07.270Z,8.70
2019-05-06T08:53:24.381Z,5.20
2019-05-06T08:56:35.549Z,4.77
2019-05-06T08:59:43.646Z,9.80
2019-05-06T09:02:53.017Z,10.57
2019-05-06T09:06:03.185Z,7.73
2019-05-06T09:09:12.997Z,5.90
2019-05-06T09:12:22.376Z,9.50
2019-05-06T09:18:37.563Z,11.70
2019-05-06T09:21:46.494Z,13.20
2019-05-06T09:24:55.521Z,8.27
2019-05-06T09:28:13.163Z,10.57
2019-05-06T09:31:24.455Z,6.67
2019-05-06T09:37:53.379Z,8.57
2019-05-06T09:41:04.951Z,14.17
2019-05-06T09:44:12.413Z,7.90
2019-05-06T09:47:48.634Z,7.83
2019-05-06T09:50:56.566Z,9.17
2019-05-06T09:54:23.746Z,7.83
2019-05-06T09:57:34.250Z,5.90
2019-05-06T10:00:45.573Z,6.30
2019-05-06T10:03:54.275Z,7.17
2019-05-06T10:07:02.863Z,4.80
2019-05-06T10:10:10.641Z,3.67
2019-05-06T10:13:18.636Z,4.17
2019-05-06T10:16:26.586Z,7.60
2019-05-06T10:19:34.658Z,4.97
2019-05-06T10:22:43.138Z,5.07
2019-05-06T10:25:52.339Z,6.73
2019-05-06T10:29:22.296Z,9.90
2019-05-06T10:32:36.254Z,3.50
2019-05-06T10:35:44.421Z,4.70
2019-05-06T10:38:58.843Z,8.13
2019-05-06T10:42:13.313Z,3.47
2019-05-06T10:45:32.389Z,5.53
2019-05-06T10:48:42.400Z,3.70
2019-05-06T10:51:58.542Z,12.27
2019-05-06T10:55:06.579Z,3.77
2019-05-06T10:58:14.553Z,3.83
2019-05-06T11:01:33.087Z,4.57
2019-05-06T11:04:42.630Z,11.47
2019-05-06T11:07:52.157Z,7.83
2019-05-06T11:14:09.532Z,4.37
2019-05-06T11:17:17.691Z,5.83
2019-05-06T11:20:25.540Z,5.37
2019-05-06T11:23:33.938Z,6.57
2019-05-06T11:26:45.253Z,3.80
2019-05-06T11:29:55.241Z,9.27
2019-05-06T11:33:13.041Z,3.73
2019-05-06T11:36:46.410Z,6.25
2019-05-06T11:43:01.611Z,6.10
2019-05-06T11:46:11.740Z,5.30
2019-05-06T11:52:26.334Z,3.67
2019-05-06T11:55:38.791Z,7.50
2019-05-06T12:02:02.795Z,3.30
2019-05-06T12:05:12.531Z,4.83
2019-05-06T12:08:22.173Z,3.30
2019-05-06T12:11:30.563Z,4.43
2019-05-06T12:14:38.535Z,4.77
2019-05-06T12:17:46.409Z,4.57
2019-05-06T12:21:07.967Z,6.53
2019-05-06T12:27:14.255Z,6.03
2019-05-06T12:30:24.258Z,4.83
2019-05-06T12:33:36.233Z,4.93
2019-05-06T12:39:55.577Z,6.00
2019-05-06T12:43:22.544Z,5.53
2019-05-06T12:46:43.566Z,5.63
2019-05-06T12:49:53.417Z,1.63
2019-05-06T12:53:01.374Z,5.03
2019-05-06T12:56:09.602Z,3.27
2019-05-06T12:59:17.561Z,5.17
2019-05-06T13:02:25.640Z,5.17
2019-05-06T13:05:33.578Z,2.70
2019-05-06T13:08:56.813Z,2.80
2019-05-06T13:11:52.360Z,7.40
2019-05-06T13:15:03.301Z,2.20
2019-05-06T13:18:11.535Z,4.53
2019-05-06T13:21:22.209Z,5.83
2019-05-06T13:24:29.491Z,3.33
2019-05-06T13:27:37.590Z,8.73
2019-05-06T13:30:45.529Z,2.33
2019-05-06T13:34:02.826Z,4.13
2019-05-06T13:37:12.734Z,2.57
2019-05-06T13:43:35.272Z,2.90
2019-05-06T13:46:54.589Z,3.50
2019-05-06T13:50:03.089Z,3.70
2019-05-06T13:53:14.441Z,3.97
2019-05-06T13:56:21.302Z,5.03
2019-05-06T13:59:30.569Z,11.30
2019-05-06T14:02:48.616Z,6.17
2019-05-06T14:05:56.575Z,4.97
2019-05-06T14:09:05.102Z,6.33
2019-05-06T14:12:13.886Z,3.00
2019-05-06T14:15:23.217Z,4.03
2019-05-06T14:21:38.542Z,4.03
2019-05-06T14:24:56.489Z,3.97
2019-05-06T14:28:12.434Z,4.17
2019-05-06T14:31:27.006Z,3.23
2019-05-06T14:34:35.240Z,4.00
2019-05-06T14:37:45.459Z,3.00
2019-05-06T14:44:23.240Z,3.23
2019-05-06T14:47:33.235Z,4.77
2019-05-06T14:50:46.078Z,4.73
2019-05-06T14:53:52.981Z,3.10
2019-05-06T14:57:08.596Z,1.13
2019-05-06T15:00:19.248Z,4.90
2019-05-06T15:03:27.511Z,4.00
2019-05-06T15:06:36.239Z,2.53
2019-05-06T15:09:58.556Z,2.57
2019-05-06T15:12:55.511Z,2.77
2019-05-06T15:16:03.802Z,4.83
2019-05-06T15:19:12.846Z,2.13
2019-05-06T15:22:22.636Z,5.93
2019-05-06T15:25:33.115Z,5.57
2019-05-06T15:28:42.550Z,2.20
2019-05-06T15:32:08.246Z,2.60
2019-05-06T15:35:52.470Z,4.80
2019-05-06T15:39:02.400Z,3.33
2019-05-06T15:42:12.901Z,4.77
2019-05-06T15:45:21.973Z,3.43
2019-05-06T15:48:33.045Z,5.50
2019-05-06T15:51:42.749Z,4.17
2019-05-06T15:54:52.449Z,3.50
2019-05-06T15:58:00.569Z,5.20
2019-05-06T16:01:09.551Z,13.20
2019-05-06T16:04:17.737Z,2.80
2019-05-06T16:07:26.273Z,3.70
2019-05-06T16:10:51.348Z,3.03
2019-05-06T16:16:53.075Z,3.60
2019-05-06T16:20:02.749Z,4.53
2019-05-06T16:23:42.405Z,9.63
2019-05-06T16:26:52.687Z,4.60
2019-05-06T16:30:03.461Z,5.47
2019-05-06T16:33:18.800Z,8.53
2019-05-06T16:36:25.642Z,3.47
2019-05-06T16:39:37.420Z,4.60
2019-05-06T16:45:54.044Z,4.33
2019-05-06T16:49:03.971Z,3.53
2019-05-06T16:52:13.020Z,4.60
2019-05-06T16:55:33.727Z,3.47
2019-05-06T16:58:52.714Z,6.00
2019-05-06T17:02:07.265Z,3.33
2019-05-06T17:05:33.707Z,3.40
2019-05-06T17:08:42.517Z,3.03
2019-05-06T17:11:51.729Z,5.30
2019-05-06T17:15:03.337Z,6.57
2019-05-06T17:18:15.259Z,3.07
2019-05-06T17:21:24.608Z,3.90
2019-05-06T17:24:33.370Z,4.27
2019-05-06T17:27:43.493Z,6.10
2019-05-06T17:31:13.245Z,3.77
2019-05-06T17:34:26.251Z,4.87
2019-05-06T17:37:52.744Z,2.93
2019-05-06T17:41:02.993Z,4.07
2019-05-06T17:47:32.083Z,3.63
2019-05-06T17:50:42.038Z,4.37
2019-05-06T17:53:53.266Z,2.93
2019-05-06T17:57:04.648Z,3.83
2019-05-06T18:00:14.260Z,3.07
2019-05-06T18:03:24.908Z,7.47
2019-05-06T18:06:36.701Z,3.93
2019-05-06T18:09:49.172Z,3.30
2019-05-06T18:12:57.724Z,4.97
2019-05-06T18:16:09.083Z,3.93
2019-05-06T18:19:18.166Z,7.83
2019-05-06T18:22:26.585Z,10.97
2019-05-06T18:25:34.593Z,10.37
2019-05-06T18:28:46.703Z,11.30
2019-05-06T18:31:54.722Z,14.17
2019-05-06T18:35:02.915Z,8.10
2019-05-06T18:38:11.131Z,14.20
2019-05-06T18:41:20.774Z,15.70
2019-05-06T18:44:28.927Z,34.10
2019-05-06T18:47:38.168Z,50.53
2019-05-06T18:50:46.638Z,20.77
2019-05-06T18:53:56.414Z,12.53
2019-05-06T18:57:06.090Z,11.53
2019-05-06T19:00:16.032Z,8.40
2019-05-06T19:03:27.634Z,5.37
2019-05-06T19:06:36.636Z,6.63
2019-05-06T19:10:03.190Z,10.07
2019-05-06T19:13:12.687Z,6.23
2019-05-06T19:16:22.346Z,6.50
2019-05-06T19:19:34.180Z,7.40
2019-05-06T19:22:43.112Z,5.97
2019-05-06T19:25:52.594Z,18.13
2019-05-06T19:29:04.354Z,43.30
2019-05-06T19:32:12.341Z,54.73
2019-05-06T19:35:22.260Z,63.80
2019-05-06T19:38:33.570Z,33.83
2019-05-06T19:44:48.343Z,20.67
2019-05-06T19:47:58.010Z,16.67
2019-05-06T19:51:07.661Z,11.63
2019-05-06T19:54:18.538Z,10.80
2019-05-06T19:57:26.944Z,9.60
2019-05-06T20:00:35.051Z,7.07
2019-05-06T20:03:46.759Z,6.73
2019-05-06T20:07:18.439Z,5.67
2019-05-06T20:10:42.037Z,4.77
2019-05-06T20:13:52.440Z,14.63
2019-05-06T20:17:00.551Z,9.73
2019-05-06T20:20:13.508Z,14.60
2019-05-06T20:23:18.847Z,9.23
2019-05-06T20:29:38.204Z,8.37
2019-05-06T20:32:44.577Z,6.63
2019-05-06T20:35:52.940Z,7.73
2019-05-06T20:39:02.491Z,6.60
2019-05-06T20:42:15.946Z,11.17
2019-05-06T20:45:24.333Z,26.73
2019-05-06T20:54:50.127Z,34.43
2019-05-06T20:57:58.156Z,46.63
2019-05-06T21:01:06.645Z,80.63
2019-05-06T21:04:16.566Z,54.17
2019-05-06T21:07:26.238Z,45.43
2019-05-06T21:10:35.751Z,32.30
2019-05-06T21:13:43.536Z,28.30
2019-05-06T21:16:51.608Z,20.30
2019-05-06T21:19:59.548Z,17.87
2019-05-06T21:23:07.659Z,16.60
2019-05-06T21:26:15.553Z,14.03
2019-05-06T21:29:23.675Z,10.63
2019-05-06T21:32:33.006Z,10.63
2019-05-06T21:35:42.638Z,15.20
2019-05-06T21:38:52.445Z,16.67
2019-05-06T21:42:02.038Z,10.67
2019-05-06T21:45:12.592Z,11.23
2019-05-06T21:48:22.306Z,9.67
2019-05-06T21:51:32.712Z,10.83
2019-05-06T21:54:43.260Z,11.90
2019-05-06T21:57:52.945Z,16.00
2019-05-06T22:01:05.899Z,18.90
2019-05-06T22:07:24.321Z,19.70
2019-05-06T22:10:32.675Z,20.43
2019-05-06T22:13:42.588Z,21.17
2019-05-06T22:16:50.553Z,45.93
2019-05-06T22:19:58.540Z,71.43
2019-05-06T22:23:06.578Z,47.63
2019-05-06T22:26:16.298Z,55.73
2019-05-06T22:29:24.579Z,56.75
2019-05-06T22:32:35.264Z,41.70
2019-05-06T22:35:45.534Z,62.60
2019-05-06T22:38:53.617Z,42.73
2019-05-06T22:42:02.679Z,48.83
2019-05-06T22:45:12.555Z,53.97
2019-05-06T22:48:22.210Z,43.00
2019-05-06T22:51:32.306Z,38.33
2019-05-06T22:57:47.553Z,15.47
2019-05-06T23:00:56.614Z,9.13
2019-05-06T23:04:05.031Z,8.60
2019-05-06T23:07:14.433Z,8.07
2019-05-06T23:10:24.826Z,5.30
2019-05-06T23:13:32.709Z,6.47
2019-05-06T23:16:42.446Z,7.57
2019-05-06T23:19:52.783Z,6.27
2019-05-06T23:23:02.411Z,9.33
2019-05-06T23:26:24.402Z,5.30
2019-05-06T23:29:32.573Z,8.70
2019-05-06T23:32:42.259Z,6.53
2019-05-06T23:35:51.810Z,6.93
2019-05-06T23:40:00.589Z,7.93
2019-05-06T23:44:03.250Z,8.70
2019-05-06T23:48:07.053Z,6.30
2019-05-06T23:52:12.036Z,5.27
2019-05-06T23:56:14.927Z,6.03
2019-05-06T23:59:22.670Z,7.57
